Time;durP1;ratioP1;P1;durP2;ratioP2;P2;SDS_P1;SDS_P2;PMS_P1;PMS_P2;Temp;Humidity;BMP_temperature;BMP_pressure;BME280_temperature;BME280_humidity;BME280_pressure;Samples;Min_cycle;Max_cycle;Signal;HPM_P1;HPM_P2
2023/04/26 00:02:01;;;;;;;6.95;2.75;;;3.10;99.90;;;1.65;100.00;97814.19;5001503;28;20045;-75
2023/04/26 00:04:27;;;;;;;7.20;2.80;;;3.10;99.90;;;1.61;100.00;97812.47;5002852;28;20061;-75
2023/04/26 00:06:56;;;;;;;9.60;2.90;;;3.00;99.90;;;1.62;100.00;97810.78;5017421;28;20176;-73
2023/04/26 00:09:23;;;;;;;9.98;2.85;;;3.10;99.90;;;1.57;100.00;97813.34;5005112;28;20132;-75
2023/04/26 00:11:50;;;;;;;9.27;3.65;;;3.00;99.90;;;1.42;100.00;97809.13;5007242;28;20060;-73
2023/04/26 00:14:17;;;;;;;8.27;3.17;;;3.00;99.90;;;1.37;100.00;97807.44;5001166;28;20587;-76
2023/04/26 00:16:44;;;;;;;5.85;2.53;;;3.00;99.90;;;1.20;100.00;97800.66;4999144;28;20050;-75
2023/04/26 00:19:12;;;;;;;7.10;2.63;;;2.90;99.90;;;1.16;100.00;97811.72;4988282;28;20049;-75
2023/04/26 00:21:39;;;;;;;8.00;3.60;;;2.80;99.90;;;1.07;100.00;97819.41;5004314;28;20049;-75
2023/04/26 00:24:07;;;;;;;7.50;2.75;;;2.70;99.90;;;1.20;100.00;97823.66;4995105;28;20492;-73
2023/04/26 00:26:34;;;;;;;10.15;3.10;;;2.70;99.90;;;1.25;100.00;97816.88;5003928;28;20508;-73
2023/04/26 00:29:03;;;;;;;6.13;2.35;;;2.70;99.90;;;1.21;100.00;97821.97;5002467;28;20081;-75
2023/04/26 00:31:30;;;;;;;9.38;2.50;;;2.70;99.90;;;1.33;100.00;97819.38;4998658;28;21690;-75
2023/04/26 00:33:57;;;;;;;12.90;3.10;;;2.70;99.90;;;1.22;100.00;97819.41;5000609;28;20128;-72
2023/04/26 00:36:25;;;;;;;7.88;2.97;;;2.70;99.90;;;1.10;100.00;97822.00;5002843;28;20787;-75
2023/04/26 00:38:52;;;;;;;7.70;2.95;;;2.60;99.90;;;1.10;100.00;97819.44;5006266;28;20127;-75
2023/04/26 00:41:20;;;;;;;10.90;3.25;;;2.60;99.90;;;0.96;100.00;97819.44;4998145;28;20692;-75
2023/04/26 00:43:48;;;;;;;9.23;3.60;;;2.50;99.90;;;1.04;100.00;97819.44;5003798;28;20136;-74
2023/04/26 00:46:15;;;;;;;6.30;2.63;;;2.50;99.90;;;1.04;100.00;97817.72;5004709;28;20116;-75
2023/04/26 00:48:43;;;;;;;9.68;2.83;;;2.50;99.90;;;1.02;100.00;97816.03;4998962;28;20060;-76
2023/04/26 00:51:11;;;;;;;5.95;2.53;;;2.50;99.90;;;0.95;100.00;97820.28;5004346;28;20061;-75
2023/04/26 00:53:40;;;;;;;10.98;3.38;;;2.50;99.90;;;0.87;100.00;97821.13;5006784;28;20049;-74
2023/04/26 00:56:09;;;;;;;8.23;3.50;;;2.40;99.90;;;0.74;100.00;97822.84;5002071;28;20048;-74
2023/04/26 00:58:37;;;;;;;6.68;3.08;;;2.30;99.90;;;0.82;100.00;97823.69;4999253;28;20112;-75
2023/04/26 01:01:06;;;;;;;6.22;2.42;;;2.30;99.90;;;0.76;100.00;97823.72;4996753;28;20142;-74
2023/04/26 01:03:33;;;;;;;8.57;3.40;;;2.30;99.90;;;0.70;100.00;97824.53;5004642;28;20141;-75
2023/04/26 01:06:02;;;;;;;11.50;3.45;;;2.30;99.90;;;0.71;100.00;97820.28;5004601;28;20448;-73
2023/04/26 01:08:29;;;;;;;6.38;2.38;;;2.20;99.90;;;0.60;100.00;97823.69;5007144;28;21378;-73
2023/04/26 01:10:57;;;;;;;8.18;3.10;;;2.20;99.90;;;0.56;100.00;97816.03;5008265;28;20059;-74
2023/04/26 01:13:25;;;;;;;9.40;3.47;;;2.20;99.90;;;0.49;100.00;97812.59;5005802;28;20507;-73
2023/04/26 01:15:54;;;;;;;10.52;3.53;;;2.10;99.90;;;0.60;100.00;97820.28;4990348;28;20505;-75
2023/04/26 01:18:21;;;;;;;11.80;3.63;;;2.10;99.90;;;0.62;100.00;97823.69;5004282;28;20508;-75
2023/04/26 01:20:50;;;;;;;10.57;3.65;;;2.10;99.90;;;0.67;100.00;97816.88;5007606;28;20038;-75
2023/04/26 01:23:19;;;;;;;8.35;3.38;;;2.10;99.90;;;0.61;100.00;97817.72;5021815;28;20078;-75
2023/04/26 01:25:46;;;;;;;10.93;3.50;;;2.10;99.90;;;0.55;100.00;97822.84;5008099;28;20058;-75
2023/04/26 01:28:14;;;;;;;8.07;2.97;;;2.10;99.90;;;0.52;100.00;97822.81;5010093;28;20056;-75
2023/04/26 01:30:42;;;;;;;5.95;2.58;;;2.10;99.90;;;0.35;100.00;97815.13;5007091;28;20061;-74
2023/04/26 01:33:09;;;;;;;9.27;3.67;;;2.10;99.90;;;0.39;100.00;97819.41;5006265;28;20523;-75
2023/04/26 01:35:36;;;;;;;10.02;3.38;;;2.00;99.90;;;0.45;100.00;97823.66;4989043;28;20048;-74
2023/04/26 01:38:03;;;;;;;6.10;2.40;;;1.90;99.90;;;0.56;100.00;97818.56;4995265;28;20403;-74
2023/04/26 01:40:30;;;;;;;6.40;2.28;;;1.90;99.90;;;0.39;100.00;97818.56;5009559;28;20046;-74
2023/04/26 01:42:58;;;;;;;11.38;2.63;;;1.90;99.90;;;0.44;100.00;97818.56;5007198;28;20128;-75
2023/04/26 01:45:26;;;;;;;7.72;3.20;;;1.90;99.90;;;0.45;100.00;97818.56;5005031;28;20050;-75
2023/04/26 01:47:53;;;;;;;10.82;3.20;;;1.90;99.90;;;0.30;100.00;97818.56;5002976;28;20064;-75
2023/04/26 01:50:20;;;;;;;9.30;3.28;;;1.90;99.90;;;0.31;100.00;97817.69;5002243;28;20042;-74
2023/04/26 01:52:47;;;;;;;7.10;2.58;;;1.90;99.90;;;0.08;100.00;97823.59;5006787;28;20066;-75
2023/04/26 01:55:14;;;;;;;7.43;2.60;;;1.80;99.90;;;0.10;100.00;97816.78;5010440;28;20479;-75
2023/04/26 01:57:44;;;;;;;12.68;3.67;;;1.70;99.90;;;0.02;100.00;97825.25;5006349;28;20041;-75
2023/04/26 02:00:12;;;;;;;9.18;3.30;;;1.70;99.90;;;0.14;100.00;97826.16;5006415;28;20054;-75
2023/04/26 02:02:39;;;;;;;9.25;3.33;;;1.70;99.90;;;0.03;100.00;97822.72;5004183;28;20057;-75
2023/04/26 02:05:10;;;;;;;5.97;3.10;;;1.70;99.90;;;0.10;100.00;97823.59;5005605;28;20065;-74
2023/04/26 02:07:38;;;;;;;9.10;3.03;;;1.60;99.90;;;-0.02;100.00;97825.25;5009525;28;20099;-74
2023/04/26 02:10:06;;;;;;;9.85;3.58;;;1.60;99.90;;;0.05;100.00;97825.28;4991921;28;20052;-74
2023/04/26 02:12:33;;;;;;;10.48;3.45;;;1.50;99.90;;;0.01;100.00;97816.75;4995791;28;20129;-74
2023/04/26 02:15:05;;;;;;;6.63;2.40;;;1.50;99.90;;;-0.07;100.00;97819.31;5004599;28;20120;-74
2023/04/26 02:17:32;;;;;;;8.88;3.10;;;1.50;99.90;;;-0.02;100.00;97821.88;4999806;28;20129;-75
2023/04/26 02:19:59;;;;;;;4.70;2.78;;;1.50;99.90;;;0.06;100.00;97824.44;5008018;28;20042;-74
2023/04/26 02:22:26;;;;;;;8.98;2.90;;;1.50;99.90;;;0.01;100.00;97814.22;5013311;28;21476;-74
2023/04/26 02:24:53;;;;;;;8.85;2.78;;;1.50;99.90;;;0.03;100.00;97819.31;5003759;28;20068;-74
2023/04/26 02:27:21;;;;;;;6.57;2.35;;;1.50;99.90;;;-0.03;100.00;97820.16;5001584;28;21367;-74
2023/04/26 02:29:48;;;;;;;6.07;2.28;;;1.50;99.90;;;0.08;100.00;97825.28;4992802;28;20476;-74
2023/04/26 02:32:15;;;;;;;6.13;2.67;;;1.50;99.90;;;0.04;100.00;97829.53;5026402;28;20058;-75
2023/04/26 02:34:43;;;;;;;10.35;2.53;;;1.60;99.90;;;-0.03;100.00;97826.09;5009548;28;20091;-74
2023/04/26 02:37:10;;;;;;;7.13;3.38;;;1.50;99.90;;;-0.10;100.00;97828.63;5014331;28;20092;-74
2023/04/26 02:39:37;;;;;;;7.97;3.00;;;1.50;99.90;;;-0.23;100.00;97827.72;4986866;28;20081;-74
2023/04/26 02:42:09;;;;;;;10.70;2.75;;;1.40;99.90;;;-0.24;100.00;97828.56;5010882;28;20037;-74
2023/04/26 02:44:38;;;;;;;7.20;2.80;;;1.40;99.90;;;-0.15;100.00;97836.25;5011452;28;20567;-74
2023/04/26 02:47:05;;;;;;;5.65;2.20;;;1.40;99.90;;;-0.02;100.00;97832.06;4993226;28;20054;-75
2023/04/26 02:49:33;;;;;;;5.60;2.47;;;1.40;99.90;;;-0.15;100.00;97827.78;5008880;28;20440;-74
2023/04/26 02:52:00;;;;;;;8.27;2.55;;;1.40;99.90;;;-0.12;100.00;97828.63;5009583;28;20436;-75
2023/04/26 02:54:27;;;;;;;9.75;2.78;;;1.40;99.90;;;-0.12;100.00;97823.50;5005883;28;21894;-74
2023/04/26 02:56:54;;;;;;;11.63;3.10;;;1.40;99.90;;;-0.14;100.00;97827.75;5011591;28;20048;-74
2023/04/26 02:59:21;;;;;;;8.63;3.00;;;1.40;99.90;;;-0.18;100.00;97820.97;5005254;28;20057;-75
2023/04/26 03:01:48;;;;;;;7.60;3.13;;;1.40;99.90;;;-0.18;100.00;97820.09;5000646;28;20046;-74
2023/04/26 03:04:16;;;;;;;6.88;3.00;;;1.40;99.90;;;-0.10;100.00;97820.97;4987338;28;20061;-76
2023/04/26 03:06:43;;;;;;;7.28;3.13;;;1.30;99.90;;;-0.19;100.00;97819.25;5006811;28;20052;-74
2023/04/26 03:09:10;;;;;;;8.70;3.22;;;1.30;99.90;;;-0.37;100.00;97819.16;5005187;28;20056;-74
2023/04/26 03:11:37;;;;;;;6.78;2.20;;;1.30;99.90;;;-0.49;100.00;97820.81;5006382;28;20926;-74
2023/04/26 03:14:05;;;;;;;12.10;3.42;;;1.30;99.90;;;-0.60;100.00;97824.16;5000213;28;20045;-74
2023/04/26 03:16:41;;;;;;;8.05;2.80;;;1.10;99.90;;;-0.59;100.00;97829.25;5006462;28;20041;-75
2023/04/26 03:19:09;;;;;;;6.93;3.03;;;1.10;99.90;;;-0.55;100.00;97830.97;5008444;28;20047;-74
2023/04/26 03:21:36;;;;;;;7.07;3.05;;;1.00;99.90;;;-0.48;100.00;97830.19;5007760;28;20056;-74
2023/04/26 03:24:03;;;;;;;5.57;2.30;;;1.00;99.90;;;-0.36;100.00;97833.63;5007736;28;20112;-74
2023/04/26 03:26:30;;;;;;;9.43;3.47;;;1.00;99.90;;;-0.29;100.00;97830.25;5012408;28;20073;-74
2023/04/26 03:28:57;;;;;;;7.38;3.10;;;1.10;99.90;;;-0.46;100.00;97818.28;5002362;28;20053;-74
2023/04/26 03:31:25;;;;;;;7.45;2.85;;;1.10;99.90;;;-0.49;100.00;97812.31;5008609;28;20063;-74
2023/04/26 03:33:52;;;;;;;8.55;3.03;;;1.10;99.90;;;-0.54;100.00;97808.88;5003357;28;20060;-74
2023/04/26 03:36:19;;;;;;;10.40;3.83;;;1.00;99.90;;;-0.53;100.00;97813.97;5006574;28;20500;-74
2023/04/26 03:38:47;;;;;;;9.25;3.28;;;1.00;99.90;;;-0.54;100.00;97801.25;5012311;28;20049;-74
2023/04/26 03:41:14;;;;;;;5.43;2.83;;;1.00;99.90;;;-0.48;100.00;97799.56;5006903;28;20554;-74
2023/04/26 03:43:41;;;;;;;9.90;2.70;;;1.00;99.90;;;-0.48;100.00;97803.81;5009118;28;20139;-74
2023/04/26 03:46:08;;;;;;;7.20;2.90;;;1.00;99.90;;;-0.53;100.00;97792.72;5008965;28;20042;-74
2023/04/26 03:48:35;;;;;;;8.90;3.00;;;1.00;99.90;;;-0.52;100.00;97790.19;5011848;28;20050;-74
2023/04/26 03:51:02;;;;;;;6.35;2.75;;;0.90;99.90;;;-0.52;100.00;97797.00;5001197;28;21970;-74
2023/04/26 03:53:29;;;;;;;9.90;3.40;;;1.00;99.90;;;-0.59;100.00;97791.03;5005584;28;20697;-74
2023/04/26 03:56:00;;;;;;;9.15;3.38;;;1.00;99.90;;;-0.61;100.00;97792.72;5008141;28;20133;-74
2023/04/26 03:58:27;;;;;;;10.32;3.30;;;0.90;99.90;;;-0.60;100.00;97796.09;5011296;28;20139;-74
2023/04/26 04:00:57;;;;;;;13.85;4.10;;;1.00;99.90;;;-0.67;100.00;97800.31;5008782;28;20460;-74
2023/04/26 04:03:24;;;;;;;8.93;3.78;;;0.90;99.90;;;-0.68;100.00;97802.03;5008163;28;20052;-74
2023/04/26 04:05:51;;;;;;;8.95;3.63;;;0.90;99.90;;;-0.71;100.00;97802.00;5003297;28;20188;-74
2023/04/26 04:08:19;;;;;;;5.90;2.42;;;0.90;99.90;;;-0.86;100.00;97804.47;5007660;28;20049;-74
2023/04/26 04:10:46;;;;;;;7.13;2.60;;;0.90;99.90;;;-0.83;100.00;97811.25;5008291;28;20046;-74
2023/04/26 04:13:13;;;;;;;10.10;2.90;;;0.80;99.90;;;-0.80;100.00;97812.13;4989939;28;20053;-75
2023/04/26 04:15:40;;;;;;;11.02;2.90;;;0.80;99.90;;;-0.82;100.00;97808.75;4994604;28;20048;-74
2023/04/26 04:18:07;;;;;;;10.02;3.08;;;0.80;99.90;;;-0.83;100.00;97816.38;5002444;28;20050;-74
2023/04/26 04:20:35;;;;;;;8.15;2.65;;;0.80;99.90;;;-0.76;100.00;97820.66;5002454;28;20041;-74
2023/04/26 04:23:05;;;;;;;8.77;3.00;;;0.80;99.90;;;-0.65;100.00;97816.47;5005617;28;20038;-74
2023/04/26 04:25:33;;;;;;;9.02;2.80;;;0.80;99.90;;;-0.61;100.00;97825.84;4997765;28;20419;-75
2023/04/26 04:28:04;;;;;;;5.93;2.58;;;0.70;99.90;;;-0.57;100.00;97832.69;5004207;28;20050;-74
2023/04/26 04:30:31;;;;;;;6.72;2.22;;;0.80;99.90;;;-0.56;100.00;97830.97;5004568;28;20051;-74
2023/04/26 04:32:58;;;;;;;10.95;3.75;;;0.80;99.90;;;-0.67;100.00;97834.31;5006593;28;20057;-74
2023/04/26 04:35:28;;;;;;;14.07;5.40;;;0.80;99.90;;;-0.64;100.00;97830.91;5007795;28;20052;-74
2023/04/26 04:37:57;;;;;;;8.98;4.07;;;0.80;99.90;;;-0.51;100.00;97831.84;5004995;28;20043;-74
2023/04/26 04:40:26;;;;;;;7.18;4.93;;;0.90;99.90;;;-0.35;100.00;97830.22;4992343;28;20061;-74
2023/04/26 04:42:54;;;;;;;11.10;4.78;;;0.90;99.90;;;-0.32;100.00;97833.66;5005050;28;20133;-75
2023/04/26 04:45:21;;;;;;;9.85;5.18;;;1.00;99.90;;;-0.43;100.00;97830.19;5001972;28;20112;-74
2023/04/26 04:47:48;;;;;;;23.95;12.45;;;1.00;99.90;;;-0.38;100.00;97827.66;5005355;28;20725;-74
2023/04/26 04:50:15;;;;;;;18.27;10.48;;;1.00;99.90;;;-0.22;100.00;97830.28;5007863;28;20068;-74
2023/04/26 04:52:42;;;;;;;16.45;10.07;;;1.10;99.90;;;-0.27;100.00;97826.03;5013292;28;20100;-74
2023/04/26 04:55:09;;;;;;;26.98;15.65;;;1.10;99.90;;;-0.17;100.00;97819.25;5007343;28;20053;-74
2023/04/26 04:57:37;;;;;;;24.75;13.20;;;1.10;99.90;;;-0.09;100.00;97822.66;5021062;28;20049;-74
2023/04/26 05:00:09;;;;;;;19.90;11.10;;;1.10;99.90;;;-0.08;100.00;97832.88;5007962;28;20037;-74
2023/04/26 05:02:36;;;;;;;14.60;8.38;;;1.10;99.90;;;-0.01;100.00;97829.50;5007547;28;20460;-74
2023/04/26 05:05:05;;;;;;;18.77;8.57;;;1.10;99.90;;;-0.03;100.00;97827.81;5007322;28;20099;-74
2023/04/26 05:07:32;;;;;;;13.00;7.78;;;1.10;99.90;;;0.01;100.00;97841.44;5002348;28;20049;-74
2023/04/26 05:10:00;;;;;;;13.13;6.72;;;1.10;99.90;;;-0.20;100.00;97834.56;5009482;28;20049;-75
2023/04/26 05:12:29;;;;;;;15.48;7.18;;;1.20;99.90;;;-0.19;100.00;97833.69;5009568;28;20062;-74
2023/04/26 05:14:56;;;;;;;17.52;9.10;;;1.10;99.90;;;-0.32;100.00;97835.34;5003405;28;20048;-74
2023/04/26 05:17:23;;;;;;;16.77;9.95;;;1.20;99.90;;;-0.18;100.00;97840.50;5008963;28;20046;-74
2023/04/26 05:19:50;;;;;;;18.95;11.68;;;1.10;99.90;;;-0.09;100.00;97841.41;5013378;28;20533;-74
2023/04/26 05:22:19;;;;;;;15.43;10.48;;;1.00;99.90;;;0.05;100.00;97845.72;5007781;28;20050;-74
2023/04/26 05:24:48;;;;;;;15.85;10.00;;;1.00;99.90;;;0.08;100.00;97845.72;4995481;28;20156;-74
2023/04/26 05:27:15;;;;;;;15.88;9.55;;;1.00;99.90;;;0.17;100.00;97843.19;5009337;28;20049;-74
2023/04/26 05:29:42;;;;;;;21.17;10.45;;;1.00;99.90;;;0.23;100.00;97850.88;5006507;28;20133;-75
2023/04/26 05:32:10;;;;;;;17.15;10.20;;;1.20;99.90;;;0.16;100.00;97852.56;5013910;28;20045;-75
2023/04/26 05:34:37;;;;;;;17.80;8.63;;;1.30;99.90;;;0.33;100.00;97861.94;5014584;28;20119;-74
2023/04/26 05:37:05;;;;;;;15.05;7.85;;;1.30;99.90;;;0.29;100.00;97863.63;5011666;28;20133;-74
2023/04/26 05:39:32;;;;;;;11.98;6.82;;;1.40;99.90;;;0.73;100.00;97872.22;5008283;28;20232;-74
2023/04/26 05:42:02;;;;;;;16.20;8.13;;;1.50;99.90;;;1.00;100.00;97864.59;5010567;28;20050;-74
2023/04/26 05:44:29;;;;;;;12.13;6.40;;;1.70;99.90;;;1.20;100.00;97862.00;5003082;28;20065;-74
2023/04/26 05:46:56;;;;;;;11.88;6.75;;;1.90;99.90;;;1.41;100.00;97866.25;5022586;28;20057;-75
2023/04/26 05:49:23;;;;;;;13.27;6.50;;;2.10;99.90;;;1.63;100.00;97859.38;5011480;28;20641;-75
2023/04/26 05:51:51;;;;;;;14.73;6.15;;;2.30;99.90;;;1.99;100.00;97852.47;5005762;28;20446;-74
2023/04/26 05:54:17;;;;;;;11.73;6.47;;;2.40;99.90;;;2.08;100.00;97849.00;5014401;28;20053;-75
2023/04/26 05:56:44;;;;;;;12.88;5.60;;;2.60;99.90;;;2.34;100.00;97841.19;5006918;28;20056;-75
2023/04/26 05:59:12;;;;;;;18.30;7.38;;;2.80;99.90;;;2.22;100.00;97831.00;5002743;28;20713;-75
2023/04/26 06:01:39;;;;;;;13.20;6.65;;;2.90;99.90;;;2.16;100.00;97831.03;5003012;28;20524;-75
2023/04/26 06:04:06;;;;;;;13.73;5.68;;;2.90;99.90;;;2.20;100.00;97833.56;5011283;28;20419;-75
2023/04/26 06:06:34;;;;;;;11.85;5.63;;;2.80;99.90;;;2.36;100.00;97829.22;5008974;28;20057;-74
2023/04/26 06:09:02;;;;;;;9.35;5.38;;;2.80;99.90;;;2.56;100.00;97829.09;5013671;28;20125;-75
2023/04/26 06:11:29;;;;;;;12.32;6.10;;;3.00;99.90;;;2.77;100.00;97817.00;4994978;28;20051;-75
2023/04/26 06:13:55;;;;;;;13.85;6.05;;;3.20;99.90;;;3.12;100.00;97822.69;4993841;28;20068;-75
2023/04/26 06:16:23;;;;;;;9.40;5.28;;;3.40;99.90;;;3.11;100.00;97815.84;5011761;28;20053;-75
2023/04/26 06:18:50;;;;;;;11.10;5.25;;;3.60;99.90;;;3.61;100.00;97818.78;5012405;28;20093;-75
2023/04/26 06:21:17;;;;;;;14.85;5.95;;;3.90;99.90;;;3.65;100.00;97817.00;5003236;28;20050;-75
2023/04/26 06:23:45;;;;;;;10.50;5.07;;;4.10;99.90;;;3.96;100.00;97813.22;4993716;28;20069;-75
2023/04/26 06:26:12;;;;;;;11.60;4.65;;;4.40;99.90;;;4.22;100.00;97808.59;5004075;28;20542;-75
2023/04/26 06:28:39;;;;;;;8.90;3.47;;;4.60;99.90;;;4.50;100.00;97801.38;5013528;28;20420;-75
2023/04/26 06:31:10;;;;;;;9.00;2.97;;;4.80;99.90;;;4.76;100.00;97796.66;5014514;28;20077;-75
2023/04/26 06:33:38;;;;;;;6.47;2.80;;;5.00;99.90;;;4.80;100.00;97792.34;5020148;28;20056;-75
2023/04/26 06:36:11;;;;;;;6.95;3.13;;;5.10;99.90;;;5.04;100.00;97788.53;5005028;28;20049;-75
2023/04/26 06:38:38;;;;;;;12.90;3.97;;;5.30;99.90;;;5.05;100.00;97785.06;5005329;28;20050;-76
2023/04/26 06:41:05;;;;;;;12.15;3.33;;;5.40;99.90;;;5.27;100.00;97785.53;4987228;28;20516;-75
2023/04/26 06:43:32;;;;;;;11.35;4.30;;;5.50;99.90;;;5.20;100.00;97779.66;4988804;28;20045;-75
2023/04/26 06:45:59;;;;;;;8.90;3.25;;;5.70;99.90;;;5.62;100.00;97777.13;5009290;28;20392;-75
2023/04/26 06:48:26;;;;;;;10.63;3.53;;;5.90;99.90;;;5.97;100.00;97770.44;5010389;28;20489;-75
2023/04/26 06:50:53;;;;;;;8.82;2.70;;;6.20;99.90;;;6.21;100.00;97768.25;4992991;28;20466;-75
2023/04/26 06:53:20;;;;;;;7.82;3.17;;;6.50;99.90;;;6.38;100.00;97771.28;4995550;28;20049;-76
2023/04/26 06:55:49;;;;;;;7.78;2.88;;;6.70;99.90;;;6.79;100.00;97763.44;5006439;28;20057;-75
2023/04/26 06:58:16;;;;;;;10.65;2.92;;;6.90;99.90;;;6.84;100.00;97765.03;5004463;28;20520;-75
2023/04/26 07:00:43;;;;;;;9.27;2.72;;;7.20;99.90;;;6.62;100.00;97766.44;5007630;28;20053;-75
2023/04/26 07:03:10;;;;;;;6.68;2.45;;;7.20;99.90;;;6.63;100.00;97762.97;5008284;28;20049;-75
2023/04/26 07:05:39;;;;;;;8.48;2.83;;;7.30;99.90;;;6.69;100.00;97768.00;5008088;28;20042;-75
2023/04/26 07:08:06;;;;;;;9.98;3.05;;;7.30;99.90;;;6.70;100.00;97772.25;5006451;28;20460;-75
2023/04/26 07:10:33;;;;;;;9.23;3.13;;;7.40;99.90;;;7.06;100.00;97772.25;5006960;28;20509;-75
2023/04/26 07:13:00;;;;;;;12.48;3.42;;;7.60;99.90;;;7.11;100.00;97771.22;5005797;28;20061;-75
2023/04/26 07:15:31;;;;;;;9.40;2.70;;;7.80;99.90;;;6.91;100.00;97773.44;5007883;28;20056;-75
2023/04/26 07:17:59;;;;;;;12.68;3.92;;;7.90;99.90;;;6.77;100.00;97763.47;5005728;28;20042;-75
2023/04/26 07:20:26;;;;;;;10.57;3.40;;;7.70;99.90;;;6.85;100.00;97761.56;5007060;28;20053;-76
2023/04/26 07:22:52;;;;;;;8.80;3.40;;;7.80;99.90;;;6.81;100.00;97772.00;5004591;28;20052;-75
2023/04/26 07:25:19;;;;;;;9.77;2.90;;;7.80;99.90;;;7.36;100.00;97764.59;5004877;28;20053;-75
2023/04/26 07:27:46;;;;;;;6.70;3.10;;;7.90;99.90;;;7.41;100.00;97767.88;4989184;28;20078;-75
2023/04/26 07:30:14;;;;;;;9.77;3.05;;;8.10;99.90;;;7.60;100.00;97765.66;5004003;28;20095;-75
2023/04/26 07:32:43;;;;;;;10.15;3.55;;;8.20;99.90;;;7.87;100.00;97759.72;5010089;28;20056;-75
2023/04/26 07:35:14;;;;;;;11.35;3.45;;;8.30;99.90;;;7.64;100.00;97759.50;5000082;28;20085;-75
2023/04/26 07:37:46;;;;;;;11.68;3.42;;;8.40;99.90;;;7.47;100.00;97757.41;5007518;28;20045;-76
2023/04/26 07:40:13;;;;;;;11.35;3.25;;;8.50;99.90;;;7.43;100.00;97756.63;5006893;28;20050;-76
2023/04/26 07:42:41;;;;;;;8.02;2.65;;;8.30;99.90;;;8.15;100.00;97746.81;5003036;28;20516;-75
2023/04/26 07:45:09;;;;;;;9.07;2.83;;;8.40;99.90;;;8.31;100.00;97748.94;5006439;28;20055;-76
2023/04/26 07:47:36;;;;;;;12.75;3.47;;;8.60;99.90;;;8.10;100.00;97753.88;5004713;28;20041;-76
2023/04/26 07:50:04;;;;;;;9.05;3.15;;;8.80;99.90;;;7.94;100.00;97761.22;5002509;28;20046;-76
2023/04/26 07:52:31;;;;;;;10.98;3.45;;;8.90;99.90;;;8.16;100.00;97760.59;5020307;28;20133;-76
2023/04/26 07:54:59;;;;;;;7.20;2.42;;;8.90;99.90;;;8.41;100.00;97752.13;5005066;28;20046;-76
2023/04/26 07:57:26;;;;;;;7.05;2.13;;;9.00;99.90;;;8.68;100.00;97752.97;5010327;28;20045;-76
2023/04/26 07:59:56;;;;;;;8.48;2.78;;;9.10;99.90;;;8.16;100.00;97752.81;5008175;28;20048;-75
2023/04/26 08:02:23;;;;;;;7.38;2.80;;;9.20;99.90;;;8.56;100.00;97755.06;5003447;28;20042;-75
2023/04/26 08:05:09;;;;;;;11.32;3.03;;;9.20;99.90;;;8.56;100.00;97765.41;5003096;28;20057;-75
2023/04/26 08:07:36;;;;;;;6.78;2.22;;;9.30;99.90;;;8.10;100.00;97776.28;5003096;28;20776;-75
2023/04/26 08:10:03;;;;;;;9.02;2.78;;;9.30;99.90;;;8.12;100.00;97770.19;5004825;28;20060;-75
2023/04/26 08:12:32;;;;;;;7.30;3.30;;;9.30;99.90;;;8.34;100.00;97772.94;5006619;28;20054;-75
2023/04/26 08:15:00;;;;;;;8.68;2.50;;;9.30;99.90;;;9.04;100.00;97763.88;5023155;28;20045;-75
2023/04/26 08:17:27;;;;;;;8.48;2.58;;;9.30;99.90;;;9.73;100.00;97760.63;5000868;28;20046;-75
2023/04/26 08:19:55;;;;;;;12.48;3.47;;;9.50;99.90;;;10.11;100.00;97748.84;5003401;28;20597;-75
2023/04/26 08:22:23;;;;;;;9.20;2.58;;;9.80;99.90;;;10.98;100.00;97744.56;5002530;28;20053;-75
2023/04/26 08:24:54;;;;;;;10.98;2.60;;;10.10;99.90;;;11.22;100.00;97741.81;4992170;28;20053;-76
2023/04/26 08:27:22;;;;;;;10.52;2.47;;;10.40;99.90;;;11.47;100.00;97747.69;5003300;28;20053;-74
2023/04/26 08:29:49;;;;;;;9.32;2.58;;;11.00;99.90;;;11.25;100.00;97746.91;5001206;28;21042;-75
2023/04/26 08:32:16;;;;;;;8.85;2.53;;;11.30;99.90;;;11.65;100.00;97740.78;4995508;28;20072;-75
2023/04/26 08:34:43;;;;;;;8.57;2.63;;;11.70;99.90;;;11.30;100.00;97737.16;5002568;28;20133;-75
2023/04/26 08:37:11;;;;;;;7.53;2.10;;;12.30;99.90;;;11.32;100.00;97729.31;5005046;28;20065;-73
2023/04/26 08:39:38;;;;;;;9.20;2.03;;;12.50;99.90;;;10.60;100.00;97727.94;5004639;28;20509;-74
2023/04/26 08:42:16;;;;;;;5.60;1.77;;;12.10;99.90;;;10.82;100.00;97728.75;5005493;28;20050;-76
2023/04/26 08:44:45;;;;;;;8.73;2.17;;;11.80;99.90;;;11.00;100.00;97727.16;5019476;28;20474;-76
2023/04/26 08:47:22;;;;;;;6.20;1.73;;;11.70;99.90;;;11.18;100.00;97730.72;5002841;28;20050;-75
2023/04/26 08:50:02;;;;;;;5.63;2.00;;;11.90;99.90;;;11.41;100.00;97732.34;5002987;28;20163;-75
2023/04/26 08:52:31;;;;;;;6.72;1.80;;;12.20;99.90;;;11.92;100.00;97728.34;4999708;28;20615;-74
2023/04/26 08:54:59;;;;;;;7.15;1.90;;;12.80;99.90;;;13.05;100.00;97717.81;4989822;28;20096;-75
2023/04/26 08:57:29;;;;;;;7.65;2.08;;;13.80;99.90;;;12.75;100.00;97723.63;5005847;28;20073;-74
2023/04/26 08:59:57;;;;;;;6.50;1.90;;;14.70;97.70;;;14.18;100.00;97721.44;5009166;28;20062;-75
2023/04/26 09:02:24;;;;;;;8.05;1.85;;;15.90;97.40;;;13.93;100.00;97721.94;5006302;28;20120;-75
2023/04/26 09:04:51;;;;;;;7.95;1.85;;;16.30;96.10;;;14.01;100.00;97714.53;5004612;28;20133;-75
2023/04/26 09:07:31;;;;;;;7.53;1.90;;;16.20;94.30;;;13.98;100.00;97722.53;5002538;28;20054;-75
2023/04/26 09:09:59;;;;;;;7.00;2.00;;;16.10;94.50;;;13.40;100.00;97713.41;5010065;28;20046;-75
2023/04/26 09:12:27;;;;;;;8.65;2.20;;;15.50;94.00;;;12.76;100.00;97714.88;5005343;28;20138;-76
2023/04/26 09:14:55;;;;;;;8.52;2.30;;;15.00;93.90;;;12.95;100.00;97715.66;5008436;28;20045;-75
2023/04/26 09:17:32;;;;;;;4.60;1.63;;;14.50;94.40;;;13.07;100.00;97723.75;5006189;28;20081;-75
2023/04/26 09:20:00;;;;;;;7.32;2.22;;;14.30;95.10;;;11.76;100.00;97731.69;5006409;28;20846;-75
2023/04/26 09:22:36;;;;;;;5.80;2.00;;;14.00;94.60;;;11.82;100.00;97732.25;5003550;28;20072;-75
2023/04/26 09:25:05;;;;;;;7.78;2.15;;;13.30;95.80;;;11.28;100.00;97725.97;5003515;28;20053;-74
2023/04/26 09:27:39;;;;;;;7.47;1.70;;;12.60;95.50;;;11.45;100.00;97715.69;5023837;28;20046;-74
2023/04/26 09:30:17;;;;;;;5.65;1.88;;;12.30;96.20;;;10.90;100.00;97715.44;5003603;28;20111;-74
2023/04/26 09:33:11;;;;;;;8.85;2.17;;;12.00;96.00;;;11.20;100.00;97723.72;5004594;28;20120;-73
2023/04/26 09:35:43;;;;;;;7.65;2.10;;;12.00;96.40;;;11.20;100.00;97717.66;4991625;28;20058;-74
2023/04/26 09:38:17;;;;;;;6.60;1.98;;;11.80;94.80;;;11.41;100.00;97713.31;5023634;28;20428;-73
2023/04/26 09:40:46;;;;;;;10.27;2.23;;;11.90;95.50;;;11.19;100.00;97708.19;5021353;28;20268;-74
2023/04/26 09:43:19;;;;;;;7.20;2.10;;;11.90;94.80;;;11.28;100.00;97712.97;5008830;28;20395;-74
2023/04/26 09:45:52;;;;;;;;;;;12.00;95.60;;;11.97;100.00;97706.50;5003655;28;20134;-73
2023/04/26 09:48:29;;;;;;;7.97;2.08;;;12.30;95.20;;;11.80;100.00;97715.03;5008062;28;20050;-74
2023/04/26 09:51:07;;;;;;;4.47;1.33;;;12.20;95.00;;;12.07;100.00;97715.56;5007931;28;20052;-74
2023/04/26 09:53:41;;;;;;;7.10;1.83;;;12.30;95.10;;;12.52;100.00;97703.88;4997472;28;20114;-74
2023/04/26 09:56:13;;;;;;;8.60;2.25;;;12.50;96.10;;;12.43;100.00;97705.19;5007994;28;20133;-74
2023/04/26 09:58:46;;;;;;;6.88;2.08;;;12.70;95.80;;;12.73;100.00;97705.44;5008608;28;20469;-73
2023/04/26 10:01:16;;;;;;;9.13;2.30;;;13.10;95.50;;;12.52;100.00;97709.09;5004384;28;20507;-73
2023/04/26 10:03:45;;;;;;;8.55;1.90;;;13.20;94.80;;;12.93;100.00;97706.22;5007475;28;20187;-74
2023/04/26 10:06:13;;;;;;;6.20;1.92;;;13.30;94.80;;;13.70;100.00;97702.28;5008661;28;20103;-74
2023/04/26 10:08:41;;;;;;;6.90;1.80;;;13.80;96.20;;;13.98;100.00;97702.50;5006203;28;20064;-73
2023/04/26 10:11:11;;;;;;;5.63;1.83;;;14.40;95.10;;;15.00;100.00;97697.66;5006952;28;20049;-75
2023/04/26 10:13:40;;;;;;;5.97;1.75;;;15.10;93.40;;;14.48;100.00;97700.59;5011124;28;20071;-75
2023/04/26 10:16:10;;;;;;;7.20;1.90;;;15.20;92.80;;;14.43;100.00;97685.19;5009080;28;20092;-75
2023/04/26 10:18:37;;;;;;;6.95;1.60;;;15.60;92.30;;;13.98;100.00;97684.25;5010877;28;20055;-75
2023/04/26 10:21:26;;;;;;;8.02;1.85;;;15.40;91.80;;;13.29;100.00;97692.25;5009645;28;20072;-80
2023/04/26 10:23:56;;;;;;;10.63;2.30;;;14.80;92.00;;;13.70;100.00;97692.69;4997550;28;20722;-80
2023/04/26 10:26:51;;;;;;;6.72;1.90;;;14.60;91.70;;;14.81;98.13;97676.16;4999904;28;20060;-79